Time;durP1;ratioP1;P1;durP2;ratioP2;P2;SDS_P1;SDS_P2;PMS_P1;PMS_P2;Temp;Humidity;BMP_temperature;BMP_pressure;BME280_temperature;BME280_humidity;BME280_pressure;Samples;Min_cycle;Max_cycle;Signal;HPM_P1;HPM_P2
2022/08/11 00:01:59;;;;;;;10.90;4.00;;;16.80;99.90;;;;;;4937851;29;20250;-87
2022/08/11 00:04:33;;;;;;;20.77;4.97;;;16.70;99.90;;;;;;4936164;29;20610;-87
2022/08/11 00:07:02;;;;;;;6.10;3.40;;;16.70;99.90;;;;;;4922347;29;20274;-84
2022/08/11 00:09:37;;;;;;;7.67;3.70;;;16.60;99.90;;;;;;4919869;29;20202;-86
2022/08/11 00:12:15;;;;;;;7.73;3.50;;;16.70;99.90;;;;;;4936113;29;20202;-85
2022/08/11 00:14:56;;;;;;;8.60;3.77;;;16.70;99.90;;;;;;4919494;29;20226;-88
2022/08/11 00:17:29;;;;;;;9.53;3.67;;;16.60;99.90;;;;;;4919118;29;20663;-87
2022/08/11 00:20:09;;;;;;;10.67;3.50;;;16.60;99.90;;;;;;4920078;29;20584;-88
2022/08/11 00:23:08;;;;;;;5.37;3.30;;;16.60;99.90;;;;;;4919015;29;20286;-88
2022/08/11 00:25:53;;;;;;;11.40;3.40;;;16.60;99.90;;;;;;4919127;29;20289;-90
2022/08/11 00:28:49;;;;;;;10.00;3.57;;;16.50;99.90;;;;;;4904758;29;20233;-86
2022/08/11 00:31:35;;;;;;;6.53;3.50;;;16.50;99.90;;;;;;4948222;23;20242;-87
2022/08/11 00:34:25;;;;;;;5.20;3.17;;;16.50;99.90;;;;;;4957421;28;20662;-91
2022/08/11 00:36:58;;;;;;;6.33;3.67;;;16.50;99.90;;;;;;4970125;23;20209;-90
2022/08/11 00:39:27;;;;;;;9.03;4.50;;;16.50;99.90;;;;;;4935858;29;20203;-90
2022/08/11 00:42:14;;;;;;;6.27;3.80;;;16.50;99.90;;;;;;4918974;29;20250;-89
2022/08/11 00:45:18;;;;;;;8.13;3.47;;;16.50;99.90;;;;;;4905458;29;20222;-88
2022/08/11 00:47:48;;;;;;;10.60;3.60;;;16.40;99.90;;;;;;4926402;23;20244;-86
2022/08/11 00:51:22;;;;;;;7.57;3.87;;;16.40;99.90;;;;;;4963381;23;20471;-89
2022/08/11 00:54:07;;;;;;;11.43;4.20;;;16.30;99.90;;;;;;4958113;28;20204;-88
2022/08/11 00:57:08;;;;;;;6.50;3.37;;;16.30;99.90;;;;;;4958634;28;20206;-90
2022/08/11 01:00:22;;;;;;;8.10;3.53;;;16.30;99.90;;;;;;4966765;23;20194;-87
2022/08/11 01:03:26;;;;;;;7.20;3.50;;;16.30;99.90;;;;;;4955267;28;20221;-86
2022/08/11 01:06:28;;;;;;;22.20;5.53;;;16.20;99.90;;;;;;4941767;29;20208;-85
2022/08/11 01:09:30;;;;;;;11.50;3.87;;;16.20;99.90;;;;;;4880479;29;20232;-86
2022/08/11 01:12:35;;;;;;;7.67;3.63;;;16.20;99.90;;;;;;4892599;23;20533;-86
2022/08/11 01:15:42;;;;;;;7.07;3.50;;;16.20;99.90;;;;;;4940666;29;20205;-86
2022/08/11 01:19:09;;;;;;;7.50;3.60;;;16.10;99.90;;;;;;4942952;29;20202;-84
2022/08/11 01:22:00;;;;;;;7.00;3.53;;;16.10;99.90;;;;;;4959216;29;20249;-85
2022/08/11 01:24:56;;;;;;;7.07;3.80;;;16.10;99.90;;;;;;4916797;29;20279;-84
2022/08/11 01:27:57;;;;;;;12.80;4.10;;;16.00;99.90;;;;;;4903695;29;20200;-86
2022/08/11 01:31:07;;;;;;;11.17;3.93;;;16.00;99.90;;;;;;4903917;29;20204;-86
2022/08/11 01:34:47;;;;;;;6.63;3.40;;;16.00;99.90;;;;;;4903918;29;20218;-87
2022/08/11 01:37:57;;;;;;;7.23;3.63;;;16.00;99.90;;;;;;4880669;29;20688;-87
2022/08/11 01:40:56;;;;;;;6.73;3.70;;;15.90;99.90;;;;;;4880856;29;20209;-87
2022/08/11 01:47:50;;;;;;;7.53;3.73;;;15.90;99.90;;;;;;4956687;29;20606;-87
2022/08/11 01:50:59;;;;;;;8.80;4.00;;;15.90;99.90;;;;;;4918403;29;20586;-86
2022/08/11 01:53:38;;;;;;;12.83;4.00;;;15.80;99.90;;;;;;4902042;29;20211;-89
2022/08/11 01:56:43;;;;;;;11.20;3.90;;;15.80;99.90;;;;;;4917696;29;20629;-88
2022/08/11 01:59:17;;;;;;;6.93;3.93;;;15.80;99.90;;;;;;4920758;29;20271;-89
2022/08/11 02:02:11;;;;;;;7.30;4.00;;;15.80;99.90;;;;;;4952883;23;20760;-84
2022/08/11 02:09:13;;;;;;;6.60;3.93;;;15.70;99.90;;;;;;4935285;29;20214;-83
2022/08/11 02:12:00;;;;;;;7.83;4.07;;;15.60;99.90;;;;;;4924343;29;20212;-86
2022/08/11 02:14:45;;;;;;;7.13;3.87;;;15.60;99.90;;;;;;4951633;29;20202;-85
2022/08/11 02:17:45;;;;;;;7.03;3.67;;;15.60;99.90;;;;;;4947312;29;20597;-94
2022/08/11 02:23:42;;;;;;;6.87;3.77;;;15.60;99.90;;;;;;4949910;29;20310;-86
2022/08/11 02:27:03;;;;;;;7.73;3.53;;;15.50;99.90;;;;;;4938081;29;20199;-84
2022/08/11 02:30:06;;;;;;;12.13;4.60;;;15.50;99.90;;;;;;4921575;29;20206;-86
2022/08/11 02:36:07;;;;;;;9.27;3.80;;;15.40;99.90;;;;;;4842306;29;20262;-82
2022/08/11 02:39:08;;;;;;;6.57;3.80;;;15.40;99.90;;;;;;4828317;29;20276;-84
2022/08/11 02:42:24;;;;;;;9.80;3.97;;;15.40;99.90;;;;;;4843456;29;20621;-84
2022/08/11 02:45:33;;;;;;;5.90;3.43;;;15.40;99.90;;;;;;4842659;29;20677;-84
2022/08/11 02:51:22;;;;;;;8.70;4.30;;;15.30;99.90;;;;;;4769601;30;20269;-85
2022/08/11 02:54:06;;;;;;;5.80;4.00;;;15.20;99.90;;;;;;4769945;30;20216;-83
2022/08/11 02:56:35;;;;;;;9.60;4.10;;;15.20;99.90;;;;;;4769368;30;20303;-85
2022/08/11 02:59:50;;;;;;;10.63;4.70;;;15.20;99.90;;;;;;4769100;30;20298;-82
2022/08/11 03:02:17;;;;;;;11.57;4.30;;;15.20;99.90;;;;;;4754146;30;20706;-81
2022/08/11 03:05:20;;;;;;;12.73;4.53;;;15.10;99.90;;;;;;4770029;30;20259;-85
2022/08/11 03:08:59;;;;;;;6.23;3.87;;;15.10;99.90;;;;;;4826499;29;20214;-85
2022/08/11 03:17:45;;;;;;;7.40;3.87;;;15.10;99.90;;;;;;4896937;29;20235;-85
2022/08/11 03:20:51;;;;;;;7.97;4.00;;;15.00;99.90;;;;;;4882693;29;20709;-84
2022/08/11 03:23:49;;;;;;;9.27;4.10;;;15.00;99.90;;;;;;4841725;29;20246;-84
2022/08/11 03:26:23;;;;;;;5.27;3.60;;;15.00;99.90;;;;;;4831618;29;20594;-83
2022/08/11 03:31:29;;;;;;;6.53;3.90;;;14.90;99.90;;;;;;4966674;29;20284;-84
2022/08/11 03:34:05;;;;;;;6.07;4.20;;;15.00;99.90;;;;;;4947200;29;20189;-84
2022/08/11 03:36:45;;;;;;;7.90;4.20;;;14.90;99.90;;;;;;4935411;29;20254;-84
2022/08/11 03:40:01;;;;;;;8.47;4.13;;;14.90;99.90;;;;;;4934982;29;20583;-84
2022/08/11 03:42:46;;;;;;;5.30;3.67;;;15.00;99.90;;;;;;4934951;29;20218;-84
2022/08/11 03:45:38;;;;;;;6.10;3.83;;;14.90;99.90;;;;;;4937705;29;20557;-83
2022/08/11 03:48:07;;;;;;;9.60;4.00;;;15.00;99.90;;;;;;4935456;29;20202;-84
2022/08/11 03:50:43;;;;;;;9.17;4.20;;;14.90;99.90;;;;;;4936771;29;20209;-83
2022/08/11 03:53:46;;;;;;;8.67;3.80;;;15.00;99.90;;;;;;4936382;29;20209;-84
2022/08/11 03:56:44;;;;;;;8.33;4.17;;;15.00;99.90;;;;;;4954390;29;20289;-85
2022/08/11 03:59:49;;;;;;;8.00;4.03;;;15.00;99.90;;;;;;4953576;29;20257;-85
2022/08/11 04:02:53;;;;;;;6.70;4.07;;;15.00;99.90;;;;;;4955533;29;20218;-85
2022/08/11 04:05:59;;;;;;;8.77;4.17;;;15.00;99.90;;;;;;4955174;29;20691;-84
2022/08/11 04:08:46;;;;;;;8.60;4.00;;;15.10;99.90;;;;;;4955736;28;20694;-85
2022/08/11 04:11:32;;;;;;;7.93;4.00;;;15.00;99.90;;;;;;4954042;29;20233;-85
2022/08/11 04:17:52;;;;;;;10.03;3.80;;;15.00;99.90;;;;;;4954978;29;20593;-87
2022/08/11 04:20:38;;;;;;;6.90;3.87;;;15.10;99.90;;;;;;4958702;29;20593;-88
2022/08/11 04:24:06;;;;;;;8.70;4.00;;;15.10;99.90;;;;;;4948937;29;20312;-84
2022/08/11 04:27:21;;;;;;;10.03;4.03;;;15.30;99.90;;;;;;4918855;29;20206;-85
2022/08/11 04:30:02;;;;;;;6.27;3.90;;;15.40;99.90;;;;;;4920121;29;20203;-87
2022/08/11 04:32:34;;;;;;;10.23;4.40;;;15.40;99.90;;;;;;4955515;29;20241;-82
2022/08/11 04:35:19;;;;;;;9.40;4.00;;;15.50;99.90;;;;;;4938179;29;20198;-86
2022/08/11 04:38:23;;;;;;;7.03;3.90;;;15.40;99.90;;;;;;4959525;28;20200;-87
2022/08/11 04:41:13;;;;;;;6.83;3.87;;;15.50;99.90;;;;;;4945721;29;20285;-87
2022/08/11 04:44:23;;;;;;;6.60;3.80;;;15.50;99.90;;;;;;4908237;29;20297;-86
2022/08/11 05:01:39;;;;;;;5.97;3.70;;;15.60;99.90;;;;;;4926192;29;20203;-85
2022/08/11 05:07:01;;;;;;;8.17;3.50;;;16.10;99.90;;;;;;4913780;23;20289;-85
2022/08/11 05:09:47;;;;;;;6.87;3.50;;;16.10;99.90;;;;;;4926165;29;20257;-85
2022/08/11 05:12:52;;;;;;;8.03;3.60;;;16.20;99.90;;;;;;4941242;29;20297;-84
2022/08/11 05:34:53;;;;;;;18.37;4.43;;;16.80;99.90;;;;;;4958681;28;20607;-87
2022/08/11 05:37:23;;;;;;;6.00;3.50;;;16.90;99.90;;;;;;4953603;29;20272;-87
2022/08/11 05:57:26;;;;;;;10.20;3.57;;;17.60;99.90;;;;;;4951071;29;20523;-86
2022/08/11 06:00:14;;;;;;;8.37;3.37;;;17.70;99.90;;;;;;4937744;29;20205;-86
2022/08/11 06:02:50;;;;;;;9.30;3.43;;;17.80;99.90;;;;;;4955006;29;20325;-87
2022/08/11 06:05:17;;;;;;;8.77;3.00;;;17.80;99.90;;;;;;4958399;29;20198;-86
2022/08/11 06:07:47;;;;;;;5.57;3.13;;;17.90;99.90;;;;;;4958145;29;20229;-89
2022/08/11 06:10:51;;;;;;;22.10;4.00;;;18.00;99.90;;;;;;4957939;29;20556;-88
2022/08/11 06:13:22;;;;;;;7.80;2.87;;;18.10;99.90;;;;;;4893869;29;20195;-87
2022/08/11 06:15:51;;;;;;;5.53;2.90;;;18.20;99.90;;;;;;4901331;29;20196;-89
2022/08/11 06:18:29;;;;;;;8.30;3.00;;;18.30;99.90;;;;;;4902700;29;20302;-87
2022/08/11 06:21:10;;;;;;;11.10;3.50;;;18.40;99.90;;;;;;4899961;29;20230;-85
2022/08/11 06:23:54;;;;;;;4.40;2.90;;;18.50;99.90;;;;;;4891391;29;20227;-86
2022/08/11 06:26:22;;;;;;;6.40;2.97;;;18.60;99.90;;;;;;4886935;29;20223;-87
2022/08/11 06:28:49;;;;;;;10.33;3.23;;;18.70;99.90;;;;;;4864085;29;20554;-85
2022/08/11 06:31:18;;;;;;;8.00;2.83;;;18.80;99.90;;;;;;4867904;29;20299;-86
2022/08/11 06:34:07;;;;;;;8.57;3.20;;;18.90;99.90;;;;;;4878706;29;20200;-87
2022/08/11 06:36:50;;;;;;;5.37;2.93;;;19.00;99.90;;;;;;4895241;29;20201;-85
2022/08/11 06:39:26;;;;;;;4.60;3.00;;;19.10;99.90;;;;;;4896977;29;20232;-82
2022/08/11 06:42:25;;;;;;;7.83;2.90;;;19.20;99.90;;;;;;4877248;29;20199;-88
2022/08/11 06:45:06;;;;;;;12.07;3.50;;;19.30;99.90;;;;;;4879118;29;20205;-88
2022/08/11 06:47:34;;;;;;;9.27;3.20;;;19.40;99.90;;;;;;4906390;29;20574;-94
2022/08/11 06:52:52;;;;;;;5.90;2.50;;;19.60;99.90;;;;;;4927939;29;20306;-92
2022/08/11 07:06:10;;;;;;;5.50;2.33;;;19.90;99.90;;;;;;4937302;29;20262;-85
2022/08/11 07:16:39;;;;;;;;;;;;;;;;;;;;;
2022/08/11 07:29:01;;;;;;;6.17;2.10;;;20.80;99.90;;;;;;4909122;29;20200;-83
2022/08/11 07:31:54;;;;;;;3.63;1.83;;;20.90;99.90;;;;;;4913849;29;20207;-81
2022/08/11 07:34:35;;;;;;;2.00;1.70;;;21.10;99.90;;;;;;4918652;29;20301;-82
2022/08/11 07:37:16;;;;;;;3.33;1.70;;;21.30;99.90;;;;;;4918373;29;20193;-81
2022/08/11 07:39:45;;;;;;;3.77;1.70;;;21.40;99.90;;;;;;4903855;29;20191;-86
2022/08/11 07:42:22;;;;;;;3.23;1.70;;;21.50;99.90;;;;;;4917574;29;20198;-84
2022/08/11 07:53:22;;;;;;;3.30;1.60;;;21.60;99.90;;;;;;4932747;29;20286;-81
2022/08/11 07:55:54;;;;;;;2.47;1.60;;;21.80;99.90;;;;;;4918710;29;20199;-83
2022/08/11 08:20:01;;;;;;;3.53;1.30;;;23.90;99.90;;;;;;4908881;29;20192;-80
2022/08/11 08:22:31;;;;;;;3.28;1.58;;;25.00;99.90;;;;;;4912655;29;20295;-80
2022/08/11 08:26:00;;;;;;;2.00;1.30;;;26.00;99.90;;;;;;4966444;23;20254;-84
2022/08/11 08:31:55;;;;;;;4.88;1.40;;;27.60;99.90;;;;;;4929927;29;20206;-76
2022/08/11 08:34:23;;;;;;;3.47;1.40;;;28.00;99.90;;;;;;4935361;29;20206;-80
2022/08/11 08:40:44;;;;;;;2.20;1.30;;;28.40;99.90;;;;;;5167945;23;20287;-83
2022/08/11 08:43:21;;;;;;;1.70;1.17;;;28.90;99.90;;;;;;4936759;29;20625;-72
2022/08/11 08:45:54;;;;;;;1.85;1.30;;;29.00;98.30;;;;;;4956137;28;20198;-77
2022/08/11 08:48:24;;;;;;;2.92;1.40;;;28.90;97.70;;;;;;4955409;28;20202;-88
2022/08/11 08:53:52;;;;;;;2.15;1.48;;;28.50;96.70;;;;;;4974354;28;20228;-82
2022/08/11 08:56:27;;;;;;;2.45;1.30;;;28.20;97.90;;;;;;4957714;28;20281;-85
2022/08/11 08:58:58;;;;;;;1.65;1.10;;;28.40;96.20;;;;;;4958103;28;20313;-82
2022/08/11 09:01:46;;;;;;;4.70;1.13;;;28.60;96.00;;;;;;4962366;28;20233;-87
2022/08/11 09:04:19;;;;;;;1.63;1.30;;;28.60;96.00;;;;;;4960179;28;20256;-86
2022/08/11 09:06:47;;;;;;;1.30;1.13;;;28.00;95.70;;;;;;4962796;28;20265;-83
2022/08/11 09:09:30;;;;;;;3.13;1.30;;;28.00;96.80;;;;;;4953057;28;20197;-86
2022/08/11 09:11:59;;;;;;;3.15;1.15;;;28.30;95.50;;;;;;4954418;23;21487;-84
2022/08/11 09:17:20;;;;;;;2.42;1.17;;;28.70;95.10;;;;;;4949449;28;20237;-81
2022/08/11 09:20:07;;;;;;;1.98;1.20;;;28.70;92.80;;;;;;4951926;28;20197;-90
2022/08/11 09:28:37;;;;;;;1.58;1.00;;;29.00;91.50;;;;;;4922643;29;20277;-86
2022/08/11 09:31:09;;;;;;;1.13;1.02;;;28.60;91.20;;;;;;4921473;29;20643;-80
2022/08/11 09:33:41;;;;;;;1.23;0.90;;;28.00;92.00;;;;;;4911117;29;20660;-83
2022/08/11 10:09:18;;;;;;;3.22;1.10;;;29.50;86.10;;;;;;5369637;23;20263;-84
2022/08/11 10:11:47;;;;;;;2.65;1.10;;;29.40;87.10;;;;;;4927227;29;20229;-80
2022/08/11 10:36:30;;;;;;;4.57;1.55;;;26.50;93.00;;;;;;5287901;23;20363;-83
2022/08/11 11:18:40;;;;;;;2.08;1.30;;;28.10;89.80;;;;;;5536858;23;20242;-86
2022/08/11 11:21:18;;;;;;;1.70;1.45;;;27.60;89.80;;;;;;4917499;29;20199;-82
2022/08/11 11:24:04;;;;;;;4.55;1.30;;;27.30;90.50;;;;;;4917594;29;20216;-83
2022/08/11 11:27:07;;;;;;;3.20;1.30;;;27.10;90.50;;;;;;4918179;29;20234;-83
2022/08/11 11:29:56;;;;;;;9.82;2.08;;;27.00;90.50;;;;;;4896546;29;20545;-81
2022/08/11 11:32:58;;;;;;;2.30;1.40;;;27.10;91.10;;;;;;4879841;29;20290;-84
2022/08/11 11:35:54;;;;;;;3.42;1.40;;;28.30;90.60;;;;;;4890104;29;20231;-79
2022/08/11 11:38:21;;;;;;;2.10;1.20;;;29.40;88.80;;;;;;4891497;29;20201;-84
2022/08/11 11:41:23;;;;;;;3.03;1.20;;;30.50;85.70;;;;;;4871871;29;20244;-81
2022/08/11 11:43:41;;;;;;;1.00;0.90;;;31.50;81.20;;;;;;4875701;29;20216;-87
2022/08/11 11:46:29;;;;;;;1.90;1.05;;;32.50;77.90;;;;;;4906605;23;20328;-85
2022/08/11 11:49:31;;;;;;;2.15;0.90;;;32.60;73.00;;;;;;4945108;28;20308;-83
2022/08/11 11:52:01;;;;;;;1.30;1.10;;;32.00;73.50;;;;;;4956848;28;20288;-85
2022/08/11 11:54:32;;;;;;;1.98;1.00;;;30.50;74.30;;;;;;4950298;28;20288;-85
2022/08/11 12:03:39;;;;;;;2.30;1.30;;;28.10;79.60;;;;;;4955234;28;20206;-81
2022/08/11 12:06:08;;;;;;;1.63;1.20;;;28.20;82.10;;;;;;4938976;29;20746;-83
2022/08/11 12:09:22;;;;;;;3.13;1.02;;;29.10;80.70;;;;;;4938562;28;20205;-85
2022/08/11 12:14:57;;;;;;;3.95;1.13;;;31.50;75.20;;;;;;4858931;29;20196;-86
2022/08/11 12:17:25;;;;;;;3.22;1.33;;;31.90;70.90;;;;;;4871174;29;20212;-81
2022/08/11 12:19:55;;;;;;;8.60;1.30;;;30.70;71.70;;;;;;4858764;29;20209;-84
2022/08/11 12:29:37;;;;;;;;;;;;;;;;;;;;;
2022/08/11 12:33:25;;;;;;;2.85;1.08;;;29.70;76.80;;;;;;5060075;23;20277;-82
2022/08/11 12:36:06;;;;;;;2.58;1.50;;;30.60;74.40;;;;;;4930896;28;20221;-82
2022/08/11 12:38:34;;;;;;;2.58;1.10;;;31.20;71.20;;;;;;4949307;23;20229;-84
2022/08/11 12:46:38;;;;;;;1.65;1.05;;;31.00;72.30;;;;;;4928245;29;20199;-81
2022/08/11 12:52:26;;;;;;;1.35;1.00;;;31.10;75.60;;;;;;4956387;28;20496;-84
2022/08/11 12:55:09;;;;;;;1.92;1.20;;;32.00;72.50;;;;;;4933008;29;20212;-83
2022/08/11 13:06:27;;;;;;;3.17;1.38;;;31.60;78.20;;;;;;4925583;29;20297;-78
2022/08/11 13:08:57;;;;;;;3.67;1.38;;;30.70;80.90;;;;;;4936122;29;20232;-84
2022/08/11 13:14:31;;;;;;;2.97;1.38;;;28.90;86.30;;;;;;4920993;29;20202;-84
2022/08/11 13:19:47;;;;;;;2.88;1.50;;;28.00;91.00;;;;;;4943202;28;20227;-82
2022/08/11 13:22:18;;;;;;;3.97;1.30;;;27.80;91.10;;;;;;4938388;29;20708;-85
2022/08/11 13:24:49;;;;;;;1.67;1.58;;;27.50;90.40;;;;;;4937065;29;20215;-82
2022/08/11 13:27:17;;;;;;;2.45;1.40;;;27.20;90.60;;;;;;4938742;29;20233;-87
2022/08/11 13:29:46;;;;;;;2.63;1.38;;;27.00;91.20;;;;;;4923900;29;20233;-84
2022/08/11 13:32:15;;;;;;;5.15;1.42;;;26.90;91.20;;;;;;4925403;29;20208;-87
2022/08/11 13:34:46;;;;;;;3.40;1.40;;;26.80;90.70;;;;;;4923580;29;20207;-86
2022/08/11 13:37:14;;;;;;;2.20;1.30;;;26.80;91.30;;;;;;4928417;29;20606;-82
2022/08/11 13:39:49;;;;;;;5.07;1.50;;;26.80;92.00;;;;;;4856342;29;1641570;-87
2022/08/11 13:42:22;;;;;;;4.43;1.45;;;27.90;91.40;;;;;;4913373;29;20203;-86
2022/08/11 13:44:49;;;;;;;2.85;1.63;;;29.70;88.20;;;;;;4907740;29;20228;-85
2022/08/11 13:47:17;;;;;;;1.42;1.10;;;31.10;81.80;;;;;;4913496;29;20299;-86
2022/08/11 13:49:49;;;;;;;2.25;1.00;;;32.30;76.10;;;;;;4917771;29;20713;-84
2022/08/11 13:52:22;;;;;;;4.70;1.27;;;32.20;70.80;;;;;;4919304;29;20200;-84
2022/08/11 13:54:50;;;;;;;1.48;0.90;;;33.10;72.40;;;;;;4902271;29;20219;-86
2022/08/11 13:57:19;;;;;;;2.78;1.00;;;34.10;66.70;;;;;;4918270;29;20199;-84
2022/08/11 14:00:08;;;;;;;2.15;1.13;;;35.00;62.40;;;;;;4918539;29;20298;-85
2022/08/11 14:02:52;;;;;;;2.10;1.10;;;35.60;59.80;;;;;;4918960;29;20239;-85
2022/08/11 14:05:39;;;;;;;1.00;0.90;;;35.70;58.90;;;;;;4925015;23;20232;-86
2022/08/11 14:08:19;;;;;;;1.52;0.77;;;35.60;56.70;;;;;;4938823;29;20202;-82
2022/08/11 14:14:26;;;;;;;1.45;1.00;;;37.60;54.80;;;;;;4931333;29;20194;-84
2022/08/11 14:16:57;;;;;;;2.22;1.23;;;37.00;55.80;;;;;;4941309;29;20258;-85
2022/08/11 14:19:25;;;;;;;1.35;0.90;;;34.10;61.00;;;;;;4931885;29;20198;-80
2022/08/11 14:29:45;;;;;;;1.73;1.08;;;28.90;73.20;;;;;;4855657;23;20655;-83
2022/08/11 14:32:32;;;;;;;3.40;1.10;;;28.40;75.10;;;;;;4957649;28;20202;-85
2022/08/11 14:35:21;;;;;;;2.40;1.40;;;28.20;77.30;;;;;;4945503;28;20206;-80
2022/08/11 14:37:49;;;;;;;1.95;1.30;;;27.40;79.40;;;;;;4929298;28;20202;-80
2022/08/11 14:48:54;;;;;;;2.60;1.75;;;26.10;86.10;;;;;;4937350;29;20205;-82
2022/08/11 14:51:21;;;;;;;2.25;1.30;;;25.90;86.90;;;;;;4928607;29;20222;-81
2022/08/11 14:56:34;;;;;;;3.45;1.35;;;25.70;88.10;;;;;;4908155;29;20210;-82
2022/08/11 14:56:39;;;;;;;2.85;1.38;;;25.10;89.40;;;;;;4938417;29;20692;-83
2022/08/11 14:59:06;;;;;;;3.85;1.60;;;25.10;90.30;;;;;;4956139;29;20238;-84
2022/08/11 15:04:19;;;;;;;3.60;1.40;;;25.00;90.50;;;;;;4919833;29;20289;-84
2022/08/11 15:07:03;;;;;;;3.85;1.35;;;25.70;89.30;;;;;;4919797;29;20302;-83
2022/08/11 15:10:04;;;;;;;2.47;1.48;;;26.70;87.20;;;;;;4919600;29;20199;-82
2022/08/11 15:12:44;;;;;;;2.92;1.42;;;27.30;85.10;;;;;;4919697;29;20563;-78
2022/08/11 15:18:01;;;;;;;1.60;1.27;;;28.60;80.90;;;;;;4919458;29;20229;-79
2022/08/11 15:26:16;;;;;;;3.65;1.30;;;31.30;73.90;;;;;;4936339;29;20219;-80
2022/08/11 15:37:29;;;;;;;4.13;1.35;;;31.10;71.70;;;;;;4919005;29;20615;-83
2022/08/11 15:46:43;;;;;;;2.58;1.30;;;32.00;69.70;;;;;;4919088;29;20247;-83
2022/08/11 15:49:15;;;;;;;2.63;1.20;;;32.70;66.80;;;;;;4858613;29;20602;-82
2022/08/11 15:52:07;;;;;;;3.30;1.20;;;32.80;64.80;;;;;;4842667;29;20269;-81
2022/08/11 15:54:40;;;;;;;3.60;1.33;;;33.00;64.00;;;;;;4843379;29;20229;-83
2022/08/11 16:04:09;;;;;;;1.50;1.40;;;32.20;66.00;;;;;;4843586;29;20590;-83
2022/08/11 16:05:24;;;;;;;2.00;1.45;;;30.80;70.50;;;;;;4833151;29;20261;-75
2022/08/11 16:08:15;;;;;;;6.07;1.75;;;30.90;70.40;;;;;;4825001;29;20206;-76
2022/08/11 16:10:55;;;;;;;3.40;1.30;;;30.90;70.50;;;;;;4825701;29;20217;-76
2022/08/11 16:18:56;;;;;;;3.13;1.17;;;31.40;70.40;;;;;;4824978;29;20225;-75
2022/08/11 16:21:26;;;;;;;2.28;1.25;;;31.00;71.20;;;;;;4825055;29;20210;-75
2022/08/11 16:24:06;;;;;;;4.10;1.42;;;30.80;72.20;;;;;;4837406;29;20590;-73
2022/08/11 16:26:38;;;;;;;2.72;1.60;;;30.50;73.30;;;;;;4899906;29;20591;-76
2022/08/11 16:29:27;;;;;;;4.43;1.70;;;30.40;74.60;;;;;;4914965;29;20654;-73
2022/08/11 16:40:21;;;;;;;3.70;1.30;;;30.20;74.20;;;;;;4903856;29;20643;-79
2022/08/11 16:48:31;;;;;;;2.53;1.50;;;29.30;76.60;;;;;;4905698;29;20199;-83
2022/08/11 16:51:06;;;;;;;4.03;1.83;;;28.80;78.20;;;;;;4903774;29;20223;-80
2022/08/11 16:53:33;;;;;;;4.72;1.80;;;28.00;80.80;;;;;;4903770;29;20247;-83
2022/08/11 16:56:49;;;;;;;4.05;1.70;;;27.60;82.20;;;;;;4921711;29;20569;-80
2022/08/11 16:59:28;;;;;;;4.03;1.65;;;27.20;82.90;;;;;;4905835;29;20688;-80
2022/08/11 17:02:06;;;;;;;3.45;1.90;;;26.60;84.30;;;;;;4887707;29;20237;-78
2022/08/11 17:13:32;;;;;;;2.60;1.60;;;25.40;88.90;;;;;;4920301;29;20199;-81
2022/08/11 17:16:10;;;;;;;3.13;1.50;;;25.20;89.90;;;;;;4903144;29;20298;-78
2022/08/11 17:19:04;;;;;;;2.53;1.50;;;25.00;90.00;;;;;;4887972;29;20203;-80
2022/08/11 17:24:37;;;;;;;2.55;1.60;;;24.60;91.30;;;;;;4902877;29;20698;-81
2022/08/11 17:27:06;;;;;;;5.00;2.50;;;24.50;91.50;;;;;;4902723;29;20231;-79
2022/08/11 17:29:37;;;;;;;3.05;2.13;;;24.30;91.50;;;;;;4902450;29;20298;-77
2022/08/11 17:35:31;;;;;;;6.65;1.83;;;24.10;92.40;;;;;;4902592;29;20191;-80
2022/08/11 17:38:15;;;;;;;3.00;1.70;;;23.90;92.90;;;;;;4902659;29;20643;-84
2022/08/11 17:49:36;;;;;;;3.00;1.77;;;23.10;94.90;;;;;;4946691;28;20201;-82
2022/08/11 18:01:09;;;;;;;2.95;1.80;;;22.80;96.60;;;;;;4958908;28;20606;-84
2022/08/11 18:03:55;;;;;;;4.87;1.90;;;22.80;97.10;;;;;;4958982;28;20209;-83
2022/08/11 18:06:55;;;;;;;6.87;1.70;;;22.80;97.10;;;;;;4976585;28;20197;-80
